createdAt,value
2022-10-19T00:02:38.451Z,19.95
2022-10-19T00:05:42.923Z,19.95
2022-10-19T00:08:46.293Z,19.97
2022-10-19T00:11:51.106Z,19.98
2022-10-19T00:14:54.123Z,19.95
2022-10-19T00:17:57.423Z,19.95
2022-10-19T00:21:06.149Z,19.94
2022-10-19T00:24:10.032Z,19.92
2022-10-19T00:27:13.070Z,19.93
2022-10-19T00:30:16.107Z,19.92
2022-10-19T00:33:22.101Z,19.88
2022-10-19T00:36:30.842Z,19.91
2022-10-19T00:39:34.158Z,19.93
2022-10-19T00:42:37.166Z,19.91
2022-10-19T00:45:40.314Z,19.87
2022-10-19T00:48:43.460Z,19.88
2022-10-19T00:51:51.207Z,19.87
2022-10-19T00:54:55.789Z,19.84
2022-10-19T00:57:59.161Z,19.86
2022-10-19T01:01:05.863Z,19.87
2022-10-19T01:04:10.861Z,19.85
2022-10-19T01:07:15.826Z,19.84
2022-10-19T01:10:22.002Z,19.85
2022-10-19T01:13:37.776Z,19.83
2022-10-19T01:16:51.126Z,19.84
2022-10-19T01:20:27.502Z,19.83
2022-10-19T01:24:04.754Z,19.83
2022-10-19T01:27:36.596Z,19.85
2022-10-19T01:30:50.392Z,19.86
2022-10-19T01:34:00.065Z,19.81
2022-10-19T01:37:08.952Z,19.79
2022-10-19T01:40:16.602Z,19.80
2022-10-19T01:43:27.387Z,19.79
2022-10-19T01:46:38.542Z,19.78
2022-10-19T01:49:45.866Z,19.78
2022-10-19T01:52:51.885Z,19.77
2022-10-19T01:55:57.290Z,19.75
2022-10-19T01:59:04.724Z,19.77
2022-10-19T02:02:11.303Z,19.77
2022-10-19T02:05:15.502Z,19.76
2022-10-19T02:08:25.982Z,19.75
2022-10-19T02:11:30.114Z,19.76
2022-10-19T02:14:38.474Z,19.72
2022-10-19T02:17:47.711Z,19.73
2022-10-19T02:20:50.783Z,19.71
2022-10-19T02:23:54.320Z,19.77
2022-10-19T02:26:58.170Z,19.70
2022-10-19T02:30:01.234Z,19.71
2022-10-19T02:33:05.707Z,19.70
2022-10-19T02:36:09.388Z,19.68
2022-10-19T02:39:12.450Z,19.67
2022-10-19T02:42:21.494Z,19.65
2022-10-19T02:45:29.768Z,19.66
2022-10-19T02:48:35.183Z,19.66
2022-10-19T02:51:40.263Z,19.66
2022-10-19T02:54:45.704Z,19.67
2022-10-19T02:57:48.751Z,19.63
2022-10-19T03:00:51.809Z,19.67
2022-10-19T03:03:56.282Z,19.67
2022-10-19T03:06:59.271Z,19.68
2022-10-19T03:10:02.328Z,19.69
2022-10-19T03:13:05.364Z,19.69
2022-10-19T03:16:09.500Z,19.70
2022-10-19T03:19:13.937Z,19.72
2022-10-19T03:22:16.973Z,19.68
2022-10-19T03:25:20.102Z,19.52
2022-10-19T03:28:23.087Z,19.43
2022-10-19T03:31:27.264Z,19.36
2022-10-19T03:34:31.660Z,19.32
2022-10-19T03:37:34.960Z,19.22
2022-10-19T03:40:38.166Z,19.16
2022-10-19T03:43:41.321Z,19.12
2022-10-19T03:46:44.356Z,19.13
2022-10-19T03:49:50.582Z,19.05
2022-10-19T03:52:53.632Z,19.09
2022-10-19T03:56:02.793Z,19.27
2022-10-19T03:59:07.438Z,19.29
2022-10-19T04:02:10.577Z,19.34
2022-10-19T04:05:15.094Z,19.46
2022-10-19T04:08:18.151Z,19.50
2022-10-19T04:11:23.533Z,19.43
2022-10-19T04:14:32.526Z,19.52
2022-10-19T04:17:36.228Z,19.51
2022-10-19T04:20:42.855Z,19.50
2022-10-19T04:23:45.938Z,19.30
2022-10-19T04:26:51.356Z,19.28
2022-10-19T04:29:54.384Z,19.27
2022-10-19T04:32:57.538Z,19.28
2022-10-19T04:36:02.946Z,19.20
2022-10-19T04:39:06.910Z,19.17
2022-10-19T04:42:09.911Z,19.11
2022-10-19T04:45:13.042Z,19.11
2022-10-19T04:48:16.028Z,19.08
2022-10-19T04:51:21.255Z,19.07
2022-10-19T04:54:24.367Z,19.07
2022-10-19T04:57:27.365Z,18.80
2022-10-19T05:00:30.379Z,18.49
2022-10-19T05:03:33.423Z,18.48
2022-10-19T05:06:37.871Z,18.48
2022-10-19T05:09:41.927Z,18.50
2022-10-19T05:12:45.006Z,18.53
2022-10-19T05:15:57.084Z,18.51
2022-10-19T05:19:00.114Z,18.53
2022-10-19T05:22:04.562Z,18.46
2022-10-19T05:25:08.773Z,18.46
2022-10-19T05:28:11.799Z,18.44
2022-10-19T05:31:16.769Z,18.40
2022-10-19T05:34:20.051Z,18.37
2022-10-19T05:37:25.810Z,18.34
2022-10-19T05:40:28.863Z,18.33
2022-10-19T05:43:31.836Z,18.29
2022-10-19T05:46:35.572Z,18.31
2022-10-19T05:49:38.589Z,18.26
2022-10-19T05:52:42.987Z,18.29
2022-10-19T05:55:45.968Z,18.32
2022-10-19T05:58:50.015Z,18.38
2022-10-19T06:01:53.181Z,18.50
2022-10-19T06:04:56.186Z,18.58
2022-10-19T06:08:00.714Z,18.70
2022-10-19T06:11:08.386Z,18.78
2022-10-19T06:14:14.468Z,18.88
2022-10-19T06:17:17.506Z,19.01
2022-10-19T06:20:20.473Z,19.19
2022-10-19T06:23:24.883Z,19.29
2022-10-19T06:26:28.495Z,19.42
2022-10-19T06:29:31.499Z,19.53
2022-10-19T06:32:34.556Z,19.65
2022-10-19T06:35:38.486Z,19.75
2022-10-19T06:38:44.054Z,19.83
2022-10-19T06:41:47.051Z,19.92
2022-10-19T06:44:50.143Z,19.99
2022-10-19T06:47:53.158Z,20.08
2022-10-19T06:50:59.820Z,20.17
2022-10-19T06:54:04.323Z,20.28
2022-10-19T06:57:08.156Z,20.35
2022-10-19T07:00:12.816Z,20.40
2022-10-19T07:03:15.813Z,20.45
2022-10-19T07:06:18.948Z,20.48
2022-10-19T07:09:23.576Z,20.54
2022-10-19T07:12:26.591Z,20.63
2022-10-19T07:15:29.605Z,20.66
2022-10-19T07:18:33.066Z,20.71
2022-10-19T07:21:41.716Z,20.76
2022-10-19T07:24:46.628Z,20.80
2022-10-19T07:27:49.613Z,20.86
2022-10-19T07:30:52.695Z,20.91
2022-10-19T07:33:56.840Z,20.96
2022-10-19T07:36:59.846Z,21.00
2022-10-19T07:40:04.837Z,21.06
2022-10-19T07:43:07.845Z,21.07
2022-10-19T07:46:14.065Z,21.13
2022-10-19T07:49:19.050Z,21.17
2022-10-19T07:52:22.167Z,21.11
2022-10-19T07:55:26.649Z,21.14
2022-10-19T07:58:29.754Z,21.19
2022-10-19T08:01:34.119Z,21.25
2022-10-19T08:08:02.310Z,21.30
2022-10-19T08:11:09.879Z,21.33
2022-10-19T08:14:12.861Z,21.35
2022-10-19T08:17:17.682Z,21.39
2022-10-19T08:20:21.228Z,21.39
2022-10-19T08:23:24.815Z,21.42
2022-10-19T08:26:31.585Z,21.44
2022-10-19T08:29:34.576Z,21.48
2022-10-19T08:32:37.564Z,21.47
2022-10-19T08:35:40.573Z,21.48
2022-10-19T08:38:45.168Z,21.51
2022-10-19T08:42:01.122Z,21.51
2022-10-19T08:45:17.653Z,21.54
2022-10-19T08:48:26.932Z,21.49
2022-10-19T08:51:34.368Z,21.50
2022-10-19T08:54:43.504Z,21.49
2022-10-19T08:57:54.931Z,21.48
2022-10-19T09:01:05.737Z,21.46
2022-10-19T09:04:15.843Z,21.44
2022-10-19T09:07:30.272Z,21.44
2022-10-19T09:10:36.826Z,21.43
2022-10-19T09:14:04.270Z,21.41
2022-10-19T09:17:13.831Z,21.40
2022-10-19T09:20:20.045Z,21.41
2022-10-19T09:23:29.947Z,21.44
2022-10-19T09:26:38.072Z,21.42
2022-10-19T09:29:46.074Z,21.40
2022-10-19T09:32:51.695Z,21.42
2022-10-19T09:35:57.803Z,21.46
2022-10-19T09:39:01.129Z,21.51
2022-10-19T09:42:11.617Z,21.54
2022-10-19T09:45:30.354Z,21.54
2022-10-19T09:48:40.745Z,21.52
2022-10-19T09:51:50.707Z,21.49
2022-10-19T09:55:02.296Z,21.52
2022-10-19T09:58:11.043Z,21.56
2022-10-19T10:01:40.140Z,21.56
2022-10-19T10:04:56.041Z,21.55
2022-10-19T10:07:59.206Z,21.56
2022-10-19T10:11:08.283Z,21.55
2022-10-19T10:14:21.257Z,21.56
2022-10-19T10:17:31.608Z,21.58
2022-10-19T10:20:34.612Z,21.57
2022-10-19T10:23:37.949Z,21.55
2022-10-19T10:26:43.106Z,21.54
2022-10-19T10:33:13.497Z,21.52
2022-10-19T10:36:30.373Z,21.52
2022-10-19T10:39:34.289Z,21.48
2022-10-19T10:42:42.781Z,21.47
2022-10-19T10:45:48.260Z,21.46
2022-10-19T10:48:58.317Z,21.44
2022-10-19T10:52:05.952Z,21.43
2022-10-19T10:55:18.674Z,21.41
2022-10-19T10:58:31.938Z,21.39
2022-10-19T11:01:41.354Z,21.37
2022-10-19T11:04:52.581Z,21.38
2022-10-19T11:08:02.213Z,21.35
2022-10-19T11:11:15.259Z,21.31
2022-10-19T11:14:35.167Z,21.27
2022-10-19T11:17:42.344Z,21.26
2022-10-19T11:20:56.614Z,21.25
2022-10-19T11:24:09.371Z,21.23
2022-10-19T11:27:23.334Z,21.23
2022-10-19T11:30:27.576Z,21.20
2022-10-19T11:33:44.429Z,21.17
2022-10-19T11:36:59.385Z,21.15
2022-10-19T11:40:13.638Z,21.13
2022-10-19T11:43:27.006Z,21.12
2022-10-19T11:46:38.930Z,21.07
2022-10-19T11:49:54.236Z,21.06
2022-10-19T11:53:08.849Z,21.03
2022-10-19T11:56:20.665Z,21.02
2022-10-19T11:59:34.915Z,21.02
2022-10-19T12:03:14.481Z,21.00
2022-10-19T12:06:25.537Z,20.98
2022-10-19T12:09:43.839Z,20.98
2022-10-19T12:12:51.114Z,20.98
2022-10-19T12:15:57.591Z,20.96
2022-10-19T12:19:03.977Z,20.94
2022-10-19T12:22:13.458Z,20.92
2022-10-19T12:25:19.401Z,20.92
2022-10-19T12:28:26.450Z,20.89
2022-10-19T12:31:30.818Z,20.88
2022-10-19T12:34:44.685Z,20.89
2022-10-19T12:37:55.498Z,20.87
2022-10-19T12:41:08.884Z,20.85
2022-10-19T12:44:57.866Z,20.84
2022-10-19T12:48:23.190Z,20.83
2022-10-19T12:51:26.255Z,20.81
2022-10-19T12:54:31.064Z,20.79
2022-10-19T12:57:40.512Z,20.79
2022-10-19T13:00:59.242Z,20.79
2022-10-19T13:04:12.111Z,20.80
2022-10-19T13:07:19.471Z,20.79
2022-10-19T13:10:25.717Z,20.81
2022-10-19T13:13:59.674Z,20.80
2022-10-19T13:17:03.469Z,20.75
2022-10-19T13:20:51.432Z,20.77
2022-10-19T13:24:35.004Z,20.75
2022-10-19T13:27:39.907Z,20.76
2022-10-19T13:31:25.868Z,20.73
2022-10-19T13:34:29.723Z,20.73
2022-10-19T13:37:34.785Z,20.72
2022-10-19T13:40:40.198Z,20.73
2022-10-19T13:43:53.559Z,20.72
2022-10-19T13:47:22.552Z,20.71
2022-10-19T13:50:39.160Z,20.72
2022-10-19T13:53:49.438Z,20.71
2022-10-19T13:57:07.638Z,20.71
2022-10-19T14:00:17.764Z,20.69
2022-10-19T14:03:36.039Z,20.69
2022-10-19T14:06:44.923Z,20.70
2022-10-19T14:10:03.326Z,20.70
2022-10-19T14:13:12.328Z,20.68
2022-10-19T14:16:21.364Z,20.68
2022-10-19T14:19:30.826Z,20.68
2022-10-19T14:22:34.979Z,20.66
2022-10-19T14:25:38.771Z,20.66
2022-10-19T14:28:43.314Z,20.65
2022-10-19T14:31:46.405Z,20.65
2022-10-19T14:34:51.398Z,20.65
2022-10-19T14:37:54.815Z,20.63
2022-10-19T14:40:57.823Z,20.64
2022-10-19T14:44:02.918Z,20.63
2022-10-19T14:47:16.180Z,20.63
2022-10-19T14:50:22.838Z,20.63
2022-10-19T14:53:34.959Z,20.62
2022-10-19T14:56:43.354Z,20.63
2022-10-19T14:59:48.806Z,20.56
2022-10-19T15:02:58.939Z,20.52
2022-10-19T15:06:07.293Z,20.50
2022-10-19T15:09:36.722Z,20.48
2022-10-19T15:12:43.301Z,20.47
2022-10-19T15:15:46.384Z,20.46
2022-10-19T15:18:50.233Z,20.47
2022-10-19T15:22:17.485Z,20.44
2022-10-19T15:25:30.420Z,20.47
2022-10-19T15:28:38.990Z,20.47
2022-10-19T15:31:44.540Z,20.47
2022-10-19T15:34:47.828Z,20.52
2022-10-19T15:37:52.532Z,20.61
2022-10-19T15:40:58.868Z,20.55
2022-10-19T15:44:04.237Z,20.51
2022-10-19T15:47:22.757Z,20.49
2022-10-19T15:50:37.662Z,20.48
2022-10-19T15:53:42.028Z,20.49
2022-10-19T15:56:46.755Z,20.49
2022-10-19T15:59:49.760Z,20.50
2022-10-19T16:02:52.774Z,20.48
2022-10-19T16:05:56.477Z,20.50
2022-10-19T16:09:01.476Z,20.49
2022-10-19T16:12:04.604Z,20.50
2022-10-19T16:15:08.616Z,20.49
2022-10-19T16:18:12.459Z,20.49
2022-10-19T16:21:16.694Z,20.47
2022-10-19T16:24:21.154Z,20.48
2022-10-19T16:27:24.313Z,20.46
2022-10-19T16:30:27.370Z,20.44
2022-10-19T16:33:30.423Z,20.44
2022-10-19T16:36:33.426Z,20.44
2022-10-19T16:39:37.821Z,20.43
2022-10-19T16:42:40.916Z,20.47
2022-10-19T16:45:44.330Z,20.49
2022-10-19T16:48:47.277Z,20.48
2022-10-19T16:51:53.207Z,20.52
2022-10-19T16:55:01.006Z,20.53
2022-10-19T16:58:04.103Z,20.61
2022-10-19T17:01:08.238Z,20.70
2022-10-19T17:04:11.575Z,20.74
2022-10-19T17:07:15.462Z,20.76
2022-10-19T17:10:20.071Z,20.76
2022-10-19T17:13:23.054Z,20.81
2022-10-19T17:16:27.759Z,20.74
2022-10-19T17:19:30.847Z,20.69
2022-10-19T17:22:34.296Z,20.66
2022-10-19T17:25:38.958Z,20.68
2022-10-19T17:28:43.572Z,20.68
2022-10-19T17:31:47.392Z,20.71
2022-10-19T17:34:50.545Z,20.69
2022-10-19T17:37:53.564Z,20.72
2022-10-19T17:41:02.069Z,20.83
2022-10-19T17:44:06.274Z,21.72
2022-10-19T17:47:09.291Z,22.69
2022-10-19T17:50:12.291Z,23.40
2022-10-19T17:53:15.295Z,23.70
2022-10-19T17:56:21.334Z,23.97
2022-10-19T17:59:34.848Z,24.29
2022-10-19T18:02:45.744Z,24.59
2022-10-19T18:05:57.343Z,24.71
2022-10-19T18:09:01.783Z,24.59
2022-10-19T18:12:07.515Z,24.91
2022-10-19T18:15:10.970Z,25.09
2022-10-19T18:18:14.001Z,25.16
2022-10-19T18:21:18.778Z,25.17
2022-10-19T18:24:21.778Z,25.12
2022-10-19T18:27:26.269Z,24.92
2022-10-19T18:30:29.420Z,24.81
2022-10-19T18:33:32.685Z,24.73
2022-10-19T18:36:35.948Z,24.64
2022-10-19T18:39:39.142Z,24.60
2022-10-19T18:42:43.628Z,24.58
2022-10-19T18:45:52.588Z,24.57
2022-10-19T18:48:56.134Z,24.52
2022-10-19T18:51:59.376Z,24.55
2022-10-19T18:55:02.405Z,24.57
2022-10-19T18:58:06.898Z,24.58
2022-10-19T19:01:12.715Z,24.62
2022-10-19T19:04:15.730Z,24.60
2022-10-19T19:07:19.486Z,24.64
2022-10-19T19:10:22.912Z,24.61
2022-10-19T19:13:27.834Z,24.61
2022-10-19T19:16:34.767Z,24.64
2022-10-19T19:19:37.802Z,24.71
2022-10-19T19:22:40.842Z,24.67
2022-10-19T19:25:43.880Z,24.71
2022-10-19T19:28:49.153Z,24.73
2022-10-19T19:31:54.632Z,24.77
2022-10-19T19:34:57.682Z,24.83
2022-10-19T19:38:00.806Z,24.82
2022-10-19T19:41:05.550Z,24.84
2022-10-19T19:44:09.994Z,23.76
2022-10-19T19:47:13.057Z,23.03
2022-10-19T19:50:16.251Z,22.55
2022-10-19T19:53:19.562Z,22.28
2022-10-19T19:56:22.600Z,22.11
2022-10-19T19:59:27.046Z,21.98
2022-10-19T20:02:32.879Z,21.85
2022-10-19T20:05:36.041Z,21.79
2022-10-19T20:08:39.280Z,21.69
2022-10-19T20:11:42.977Z,21.63
2022-10-19T20:14:47.498Z,21.56
2022-10-19T20:17:50.491Z,21.52
2022-10-19T20:20:53.496Z,21.51
2022-10-19T20:23:56.512Z,21.45
2022-10-19T20:26:59.544Z,21.40
2022-10-19T20:30:04.377Z,21.31
2022-10-19T20:33:07.362Z,21.32
2022-10-19T20:36:11.737Z,21.30
2022-10-19T20:39:14.696Z,21.30
2022-10-19T20:42:19.156Z,21.16
2022-10-19T20:45:23.798Z,21.15
2022-10-19T20:48:26.771Z,21.14
2022-10-19T20:51:32.642Z,21.10
2022-10-19T20:54:37.010Z,21.06
2022-10-19T20:57:40.047Z,21.06
2022-10-19T21:00:44.447Z,21.07
2022-10-19T21:03:48.604Z,21.01
2022-10-19T21:06:52.808Z,20.98
2022-10-19T21:09:56.085Z,21.03
2022-10-19T21:12:59.080Z,20.97
2022-10-19T21:16:11.247Z,20.97
2022-10-19T21:19:15.509Z,20.98
2022-10-19T21:22:18.484Z,20.96
2022-10-19T21:25:21.461Z,20.98
2022-10-19T21:28:24.463Z,20.96
2022-10-19T21:31:29.193Z,20.89
2022-10-19T21:34:32.866Z,20.88
2022-10-19T21:37:36.105Z,20.87
2022-10-19T21:40:39.483Z,20.86
2022-10-19T21:43:42.827Z,20.81
2022-10-19T21:46:48.422Z,20.82
2022-10-19T21:49:51.447Z,20.83
2022-10-19T21:52:54.447Z,20.85
2022-10-19T21:56:00.697Z,20.80
2022-10-19T21:59:04.398Z,20.81
2022-10-19T22:02:08.845Z,20.82
2022-10-19T22:05:11.914Z,20.76
2022-10-19T22:08:14.969Z,20.77
2022-10-19T22:11:17.980Z,20.77
2022-10-19T22:14:20.930Z,20.79
2022-10-19T22:17:25.422Z,20.79
2022-10-19T22:20:28.399Z,20.76
2022-10-19T22:23:31.398Z,20.72
2022-10-19T22:26:36.127Z,20.70
2022-10-19T22:29:39.161Z,20.71
2022-10-19T22:32:43.549Z,20.71
2022-10-19T22:35:54.818Z,20.71
2022-10-19T22:38:57.813Z,20.70
2022-10-19T22:42:00.804Z,20.69
2022-10-19T22:45:03.855Z,20.66
2022-10-19T22:48:08.377Z,20.68
2022-10-19T22:51:11.377Z,20.70
2022-10-19T22:54:14.461Z,20.68
2022-10-19T22:57:17.389Z,20.68
2022-10-19T23:00:20.549Z,20.68
2022-10-19T23:03:24.886Z,20.69
2022-10-19T23:06:28.086Z,20.70
2022-10-19T23:09:31.096Z,20.66
2022-10-19T23:12:34.184Z,20.63
2022-10-19T23:15:41.663Z,20.68
2022-10-19T23:18:48.246Z,20.65
2022-10-19T23:21:51.289Z,20.65
2022-10-19T23:24:54.275Z,20.63
2022-10-19T23:27:57.278Z,20.64
2022-10-19T23:31:04.674Z,20.60
2022-10-19T23:34:09.038Z,20.59
2022-10-19T23:37:12.005Z,20.62
2022-10-19T23:40:14.937Z,20.63
2022-10-19T23:43:17.905Z,20.61
2022-10-19T23:46:21.091Z,20.64
2022-10-19T23:49:25.481Z,20.64
2022-10-19T23:52:28.467Z,20.59
2022-10-19T23:55:31.477Z,20.62
2022-10-19T23:58:35.198Z,20.65
